Saratoga, CA (95070)

11:13 PM PDT on April 22, 2017 (GMT -0700)
Scotland Dr. near Glasgow Dr. | | Change Station

Elev 375 ft 37.27 °N, 122.02 °W | Updated 0 second ago

Clear
Clear
49.5 °F
Feels Like 50 °F
N
0.0
Wind Variable Wind from North
Gusts 0.0 mph

Today
High -- | Low -- °F
--% Chance of Precip.
Yesterday
High -- | Low -- °F
Precip. -- in
Pressure 30.03 in
Visibility 10.0 miles
Clouds Few 2300 ft
Few 5000 ft
Windchill 50 °F
Dew Point 46 °F
Humidity 86%
Rainfall 0.00 in
Snow Depth Not available.
6:23 AM 7:49 PM
Waning Crescent, 14% visible
METAR KSJC 230553Z 31008KT 10SM FEW023 FEW050 13/08 A3003 RMK AO2 SLP168 T01330083 10189 20128 51008
Pressure 30.03 in
Visibility 10.0 miles
Clouds Few 2300 ft
Few 5000 ft
Windchill 50 °F
Dew Point 46 °F
Humidity 86%
Rainfall 0.00 in
Snow Depth Not available.
6:23 AM 7:49 PM
Waning Crescent, 14% visible
METAR KSJC 230553Z 31008KT 10SM FEW023 FEW050 13/08 A3003 RMK AO2 SLP168 T01330083 10189 20128 51008

Get Severe Weather Alerts

Thanks for signing up!

Be on the lookout for a verification email in your inbox.

You'll start receiving the daily forecast at 8 AM.

×

10-Day Weather Forecast

Almanac

Astronomy

Apr. 22, 2017 Rise Set
Actual Time
Civil Twilight
Nautical Twilight
Astronomical Twilight
Moon
Length of Visible Light
Length of Day
Tomorrow will be .
, % of the Moon is Illuminated

Today's Extremes

State Highs State Lows

Community

WunderPhotos

WunderBlog® & News

Nearby

Air Quality

  Air Quality AQ Index Pollutant
Not available.

Snow Depth

Station Depth Elevation

Earthquake Activity

City Distance Mag. Time & Date
Minimum magnitude displayed is 2.5.

Coastal Water Temperatures

Place Temperature

Stations

Nearby Weather Stations

Station Location Temp. Windchill Dew Point Humidity Wind Precip. Elev Updated Type
                   

Watches & Warnings

There are currently no watches in effect.